createdAt,value
2023-01-11T00:00:09.449Z,72.51
2023-01-11T00:02:42.234Z,72.30
2023-01-11T00:05:15.688Z,72.46
2023-01-11T00:07:48.531Z,72.44
2023-01-11T00:10:23.503Z,72.04
2023-01-11T00:12:56.326Z,72.25
2023-01-11T00:15:29.346Z,72.79
2023-01-11T00:18:02.991Z,72.45
2023-01-11T00:20:36.061Z,72.75
2023-01-11T00:23:09.587Z,72.30
2023-01-11T00:25:43.913Z,72.16
2023-01-11T00:28:16.845Z,72.53
2023-01-11T00:30:49.730Z,72.24
2023-01-11T00:33:22.511Z,71.83
2023-01-11T00:35:55.822Z,71.75
2023-01-11T00:38:51.464Z,71.87
2023-01-11T00:41:43.463Z,72.05
2023-01-11T00:44:33.873Z,72.46
2023-01-11T00:47:24.524Z,72.59
2023-01-11T00:49:57.301Z,72.61
2023-01-11T00:52:30.346Z,72.50
2023-01-11T00:55:03.149Z,72.71
2023-01-11T00:57:37.440Z,72.27
2023-01-11T01:00:11.472Z,72.19
2023-01-11T01:02:44.475Z,72.51
2023-01-11T01:05:18.546Z,72.69
2023-01-11T01:07:51.392Z,72.78
2023-01-11T01:10:24.255Z,72.59
2023-01-11T01:13:15.949Z,72.04
2023-01-11T01:15:48.763Z,72.51
2023-01-11T01:18:22.326Z,72.41
2023-01-11T01:20:55.282Z,72.46
2023-01-11T01:23:28.103Z,72.08
2023-01-11T01:26:04.192Z,72.02
2023-01-11T01:28:38.659Z,71.81
2023-01-11T01:31:11.586Z,72.35
2023-01-11T01:33:44.578Z,72.21
2023-01-11T01:36:17.395Z,72.18
2023-01-11T01:38:50.249Z,72.33
2023-01-11T01:41:23.030Z,72.85
2023-01-11T01:43:58.771Z,72.15
2023-01-11T01:46:33.446Z,72.94
2023-01-11T01:49:13.009Z,72.76
2023-01-11T01:51:52.441Z,72.18
2023-01-11T01:54:31.745Z,72.23
2023-01-11T01:57:10.384Z,71.99
2023-01-11T01:59:45.761Z,72.48
2023-01-11T02:02:18.838Z,72.72
2023-01-11T02:04:55.717Z,72.67
2023-01-11T02:07:33.027Z,71.57
2023-01-11T02:10:09.087Z,72.16
2023-01-11T02:12:45.906Z,72.14
2023-01-11T02:15:23.145Z,72.42
2023-01-11T02:17:56.141Z,72.83
2023-01-11T02:20:55.564Z,72.73
2023-01-11T02:24:01.386Z,72.57
2023-01-11T02:26:59.131Z,71.91
2023-01-11T02:29:44.343Z,71.70
2023-01-11T02:32:27.928Z,72.10
2023-01-11T02:35:11.722Z,71.71
2023-01-11T02:37:56.128Z,71.77
2023-01-11T02:40:37.912Z,72.00
2023-01-11T02:43:37.859Z,72.51
2023-01-11T02:46:18.763Z,72.55
2023-01-11T02:49:00.135Z,71.99
2023-01-11T02:51:39.819Z,72.09
2023-01-11T02:54:17.313Z,72.15
2023-01-11T02:56:52.903Z,71.50
2023-01-11T02:59:32.603Z,72.06
2023-01-11T03:02:07.403Z,72.03
2023-01-11T03:04:40.515Z,72.20
2023-01-11T03:07:25.454Z,72.06
2023-01-11T03:10:11.629Z,71.78
2023-01-11T03:12:56.131Z,72.29
2023-01-11T03:15:47.999Z,72.78
2023-01-11T03:18:36.379Z,72.55
2023-01-11T03:21:23.548Z,72.39
2023-01-11T03:24:06.459Z,72.36
2023-01-11T03:26:49.358Z,73.10
2023-01-11T03:29:31.617Z,71.93
2023-01-11T03:32:18.783Z,71.88
2023-01-11T03:35:02.261Z,72.22
2023-01-11T03:37:39.323Z,72.48
2023-01-11T03:40:17.341Z,72.16
2023-01-11T03:43:14.023Z,72.59
2023-01-11T03:45:52.166Z,72.44
2023-01-11T03:48:30.765Z,72.31
2023-01-11T03:51:09.707Z,72.25
2023-01-11T03:53:47.149Z,72.22
2023-01-11T03:56:24.667Z,72.11
2023-01-11T03:58:57.605Z,72.48
2023-01-11T04:01:30.861Z,72.62
2023-01-11T04:04:03.963Z,72.65
2023-01-11T04:06:39.333Z,72.29
2023-01-11T04:09:12.281Z,72.69
2023-01-11T04:11:45.263Z,72.63
2023-01-11T04:14:18.073Z,72.14
2023-01-11T04:16:50.882Z,71.90
2023-01-11T04:19:24.067Z,71.80
2023-01-11T04:21:58.789Z,71.18
2023-01-11T04:24:31.617Z,71.24
2023-01-11T04:27:04.587Z,71.82
2023-01-11T04:29:37.502Z,71.51
2023-01-11T04:32:10.332Z,72.01
2023-01-11T04:34:43.160Z,72.40
2023-01-11T04:37:17.388Z,72.46
2023-01-11T04:39:50.689Z,73.07
2023-01-11T04:42:25.041Z,73.03
2023-01-11T04:44:57.897Z,73.40
2023-01-11T04:47:30.708Z,73.81
2023-01-11T04:50:03.523Z,73.79
2023-01-11T04:52:38.090Z,73.85
2023-01-11T04:55:11.054Z,74.37
2023-01-11T04:57:44.790Z,74.13
2023-01-11T05:00:18.457Z,73.90
2023-01-11T05:02:51.562Z,73.50
2023-01-11T05:05:24.529Z,73.81
2023-01-11T05:07:58.839Z,73.69
2023-01-11T05:10:33.402Z,73.29
2023-01-11T05:13:06.337Z,73.54
2023-01-11T05:15:39.222Z,73.34
2023-01-11T05:18:12.132Z,72.68
2023-01-11T05:20:45.204Z,73.48
2023-01-11T05:23:19.660Z,72.72
2023-01-11T05:25:52.536Z,73.41
2023-01-11T05:28:25.798Z,73.17
2023-01-11T05:30:58.727Z,72.73
2023-01-11T05:33:32.027Z,73.22
2023-01-11T05:36:07.876Z,72.70
2023-01-11T05:38:42.372Z,73.25
2023-01-11T05:41:16.129Z,74.27
2023-01-11T05:44:08.082Z,73.55
2023-01-11T05:46:43.645Z,73.61
2023-01-11T05:49:17.253Z,73.65
2023-01-11T05:51:50.170Z,73.99
2023-01-11T05:54:24.587Z,73.76
2023-01-11T05:56:57.766Z,73.49
2023-01-11T05:59:32.190Z,73.55
2023-01-11T06:02:05.367Z,73.99
2023-01-11T06:04:38.261Z,73.26
2023-01-11T06:07:11.350Z,73.62
2023-01-11T06:09:45.834Z,73.70
2023-01-11T06:12:18.713Z,73.58
2023-01-11T06:14:51.659Z,73.53
2023-01-11T06:17:24.566Z,73.61
2023-01-11T06:19:57.464Z,73.71
2023-01-11T06:22:30.321Z,73.23
2023-01-11T06:25:04.928Z,73.51
2023-01-11T06:27:37.798Z,73.20
2023-01-11T06:30:12.985Z,72.94
2023-01-11T06:32:45.883Z,73.46
2023-01-11T06:35:18.778Z,74.02
2023-01-11T06:37:51.885Z,73.71
2023-01-11T06:40:26.387Z,73.99
2023-01-11T06:42:59.461Z,73.58
2023-01-11T06:45:32.775Z,74.03
2023-01-11T06:48:06.166Z,74.09
2023-01-11T06:50:39.318Z,73.92
2023-01-11T06:53:12.195Z,73.35
2023-01-11T06:55:50.229Z,73.56
2023-01-11T06:58:24.598Z,73.86
2023-01-11T07:00:58.654Z,73.30
2023-01-11T07:03:31.795Z,73.47
2023-01-11T07:06:04.895Z,73.30
2023-01-11T07:08:38.264Z,73.05
2023-01-11T07:11:13.127Z,72.82
2023-01-11T07:13:45.986Z,73.01
2023-01-11T07:16:19.086Z,73.60
2023-01-11T07:18:52.501Z,73.81
2023-01-11T07:21:25.449Z,73.12
2023-01-11T07:23:58.311Z,73.16
2023-01-11T07:26:33.149Z,72.98
2023-01-11T07:29:05.985Z,73.07
2023-01-11T07:31:38.930Z,73.50
2023-01-11T07:34:11.830Z,73.82
2023-01-11T07:36:44.799Z,73.21
2023-01-11T07:39:17.969Z,72.96
2023-01-11T07:42:09.969Z,73.23
2023-01-11T07:44:42.756Z,74.29
2023-01-11T07:47:15.730Z,73.42
2023-01-11T07:49:48.750Z,73.90
2023-01-11T07:52:21.701Z,73.44
2023-01-11T07:54:54.655Z,73.52
2023-01-11T07:57:31.932Z,72.32
2023-01-11T08:00:05.509Z,72.86
2023-01-11T08:02:38.596Z,72.84
2023-01-11T08:05:11.653Z,73.24
2023-01-11T08:07:44.736Z,72.63
2023-01-11T08:10:19.080Z,73.62
2023-01-11T08:13:11.247Z,73.52
2023-01-11T08:15:44.199Z,73.65
2023-01-11T08:18:17.691Z,73.71
2023-01-11T08:20:53.680Z,73.72
2023-01-11T08:23:27.477Z,73.51
2023-01-11T08:26:00.400Z,74.18
2023-01-11T08:28:35.257Z,73.64
2023-01-11T08:31:09.578Z,73.57
2023-01-11T08:33:42.539Z,74.14
2023-01-11T08:36:15.385Z,73.70
2023-01-11T08:38:48.244Z,73.47
2023-01-11T08:41:21.190Z,74.08
2023-01-11T08:43:55.672Z,73.38
2023-01-11T08:46:28.749Z,74.00
2023-01-11T08:49:02.293Z,74.12
2023-01-11T08:51:37.084Z,74.34
2023-01-11T08:54:14.200Z,74.09
2023-01-11T08:56:47.087Z,74.42
2023-01-11T08:59:22.157Z,73.92
2023-01-11T09:01:55.195Z,73.90
2023-01-11T09:04:28.353Z,74.12
2023-01-11T09:07:01.356Z,73.47
2023-01-11T09:09:34.225Z,73.92
2023-01-11T09:12:07.393Z,72.80
2023-01-11T09:14:42.707Z,72.66
2023-01-11T09:17:15.589Z,73.33
2023-01-11T09:19:48.516Z,73.13
2023-01-11T09:22:21.443Z,73.89
2023-01-11T09:24:55.456Z,73.71
2023-01-11T09:27:28.569Z,73.82
2023-01-11T09:30:02.901Z,73.36
2023-01-11T09:32:35.787Z,73.66
2023-01-11T09:35:10.375Z,73.06
2023-01-11T09:37:45.903Z,73.53
2023-01-11T09:40:21.968Z,73.29
2023-01-11T09:43:00.828Z,74.59
2023-01-11T09:45:36.653Z,73.16
2023-01-11T09:48:19.824Z,73.79
2023-01-11T09:50:52.975Z,73.77
2023-01-11T09:53:32.250Z,74.16
2023-01-11T09:56:08.565Z,74.15
2023-01-11T09:58:56.546Z,73.38
2023-01-11T10:01:38.792Z,73.58
2023-01-11T10:04:33.720Z,73.68
2023-01-11T10:07:34.706Z,73.50
2023-01-11T10:18:29.556Z,72.43
2023-01-11T10:19:40.706Z,73.30
2023-01-11T10:22:20.846Z,73.18
2023-01-11T10:25:04.187Z,72.75
2023-01-11T10:27:40.602Z,72.80
2023-01-11T10:30:43.439Z,72.45
2023-01-11T10:33:38.483Z,72.12
2023-01-11T10:36:35.105Z,71.83
2023-01-11T10:39:32.084Z,72.09
2023-01-11T10:42:11.693Z,72.24
2023-01-11T10:44:52.656Z,72.55
2023-01-11T10:47:29.543Z,72.40
2023-01-11T10:50:08.862Z,72.12
2023-01-11T10:52:51.971Z,73.06
2023-01-11T10:55:30.715Z,73.10
2023-01-11T10:58:15.704Z,72.49
2023-01-11T11:00:58.635Z,73.01
2023-01-11T11:03:46.571Z,72.97
2023-01-11T11:06:27.176Z,73.76
2023-01-11T11:09:11.126Z,73.60
2023-01-11T11:11:55.754Z,73.80
2023-01-11T11:14:35.232Z,74.18
2023-01-11T11:17:18.704Z,74.08
2023-01-11T11:19:52.854Z,74.29
2023-01-11T11:22:25.824Z,73.62
2023-01-11T11:25:05.623Z,73.41
2023-01-11T11:27:43.365Z,73.14
2023-01-11T11:30:27.988Z,73.27
2023-01-11T11:33:03.193Z,73.37
2023-01-11T11:35:42.157Z,73.68
2023-01-11T11:38:23.186Z,73.80
2023-01-11T11:41:07.136Z,73.24
2023-01-11T11:43:41.907Z,73.43
2023-01-11T11:46:26.223Z,73.42
2023-01-11T11:49:13.848Z,73.58
2023-01-11T11:51:49.203Z,74.51
2023-01-11T11:54:27.091Z,74.23
2023-01-11T11:57:15.312Z,74.49
2023-01-11T11:59:50.617Z,74.69
2023-01-11T12:02:28.322Z,74.65
2023-01-11T12:05:07.814Z,74.43
2023-01-11T12:07:54.662Z,74.71
2023-01-11T12:10:31.215Z,74.73
2023-01-11T12:13:05.648Z,75.06
2023-01-11T12:15:38.953Z,75.56
2023-01-11T12:18:26.271Z,75.03
2023-01-11T12:21:11.055Z,75.24
2023-01-11T12:23:44.196Z,75.25
2023-01-11T12:26:35.656Z,75.20
2023-01-11T12:29:38.480Z,75.51
2023-01-11T12:32:33.967Z,75.54
2023-01-11T12:35:23.687Z,75.86
2023-01-11T12:38:10.657Z,75.78
2023-01-11T12:41:00.019Z,75.82
2023-01-11T12:43:44.320Z,76.19
2023-01-11T12:46:26.688Z,75.96
2023-01-11T12:49:22.789Z,75.21
2023-01-11T12:52:22.347Z,75.84
2023-01-11T12:55:12.647Z,76.21
2023-01-11T12:58:01.996Z,76.85
2023-01-11T13:01:12.814Z,76.52
2023-01-11T13:04:34.432Z,75.70
2023-01-11T13:07:15.929Z,75.95
2023-01-11T13:10:03.876Z,76.47
2023-01-11T13:12:45.816Z,76.28
2023-01-11T13:15:25.273Z,76.81
2023-01-11T13:18:05.913Z,76.56
2023-01-11T13:21:00.727Z,76.35
2023-01-11T13:23:43.211Z,76.58
2023-01-11T13:26:24.853Z,76.59
2023-01-11T13:29:01.949Z,76.70
2023-01-11T13:31:36.812Z,76.71
2023-01-11T13:34:17.497Z,76.72
2023-01-11T13:36:56.651Z,77.51
2023-01-11T13:39:35.884Z,77.81
2023-01-11T13:42:16.874Z,76.72
2023-01-11T13:44:56.388Z,77.72
2023-01-11T13:47:35.889Z,77.07
2023-01-11T13:50:17.078Z,77.22
2023-01-11T13:53:02.646Z,77.50
2023-01-11T13:55:43.157Z,76.96
2023-01-11T13:58:23.381Z,77.47
2023-01-11T14:01:04.523Z,77.40
2023-01-11T14:03:47.333Z,76.86
2023-01-11T14:06:35.085Z,76.72
2023-01-11T14:09:25.315Z,77.03
2023-01-11T14:12:06.607Z,76.44
2023-01-11T14:14:59.357Z,76.82
2023-01-11T14:17:49.288Z,77.11
2023-01-11T14:20:29.310Z,76.50
2023-01-11T14:23:11.873Z,76.63
2023-01-11T14:26:10.124Z,76.88
2023-01-11T14:29:06.791Z,77.20
2023-01-11T14:32:02.936Z,76.93
2023-01-11T14:35:19.191Z,76.69
2023-01-11T14:38:13.908Z,77.20
2023-01-11T14:41:28.015Z,76.89
2023-01-11T14:44:39.241Z,77.04
2023-01-11T14:47:35.341Z,76.98
2023-01-11T14:50:16.231Z,77.77
2023-01-11T14:52:52.294Z,77.65
2023-01-11T14:55:28.939Z,77.72
2023-01-11T14:58:06.044Z,77.47
2023-01-11T15:01:11.656Z,77.10
2023-01-11T15:03:51.638Z,77.67
2023-01-11T15:06:25.042Z,77.70
2023-01-11T15:08:58.148Z,77.88
2023-01-11T15:11:40.961Z,77.82
2023-01-11T15:14:28.904Z,77.47
2023-01-11T15:17:21.108Z,77.91
2023-01-11T15:19:55.474Z,77.92
2023-01-11T15:22:32.111Z,78.18
2023-01-11T15:25:08.109Z,78.29
2023-01-11T15:27:41.197Z,78.13
2023-01-11T15:30:38.645Z,78.06
2023-01-11T15:33:30.367Z,78.03
2023-01-11T15:36:06.845Z,78.24
2023-01-11T15:38:49.593Z,78.30
2023-01-11T15:41:53.067Z,78.30
2023-01-11T15:44:43.312Z,77.86
2023-01-11T15:47:34.971Z,78.45
2023-01-11T15:50:43.063Z,78.60
2023-01-11T15:53:51.852Z,78.39
2023-01-11T15:56:45.485Z,78.17
2023-01-11T15:59:44.828Z,78.37
2023-01-11T16:03:18.589Z,78.11
2023-01-11T16:05:59.908Z,78.64
2023-01-11T16:08:41.798Z,78.74
2023-01-11T16:11:18.226Z,78.29
2023-01-11T16:14:03.964Z,77.97
2023-01-11T16:16:41.399Z,78.32
2023-01-11T16:19:19.992Z,78.68
2023-01-11T16:21:55.677Z,78.15
2023-01-11T16:24:35.645Z,78.75
2023-01-11T16:27:10.569Z,79.12
2023-01-11T16:29:51.164Z,78.82
2023-01-11T16:32:27.242Z,78.95
2023-01-11T16:35:01.298Z,79.30
2023-01-11T16:37:39.113Z,79.46
2023-01-11T16:40:18.277Z,78.94
2023-01-11T16:42:55.861Z,79.00
2023-01-11T16:45:42.870Z,78.26
2023-01-11T16:48:17.941Z,78.78
2023-01-11T16:51:01.650Z,78.71
2023-01-11T16:53:36.177Z,78.76
2023-01-11T16:56:16.362Z,78.82
2023-01-11T16:59:07.608Z,78.90
2023-01-11T17:01:51.054Z,79.00
2023-01-11T17:04:30.187Z,78.75
2023-01-11T17:07:15.103Z,78.89
2023-01-11T17:09:48.048Z,79.72
2023-01-11T17:12:25.580Z,78.93
2023-01-11T17:15:13.981Z,79.51
2023-01-11T17:17:47.320Z,79.32
2023-01-11T17:20:22.779Z,78.91
2023-01-11T17:22:56.676Z,79.04
2023-01-11T17:25:43.849Z,78.81
2023-01-11T17:28:21.011Z,79.17
2023-01-11T17:30:55.413Z,78.99
2023-01-11T17:33:32.964Z,79.22
2023-01-11T17:36:07.738Z,78.90
2023-01-11T17:38:43.375Z,79.46
2023-01-11T17:41:31.997Z,79.62
2023-01-11T17:44:24.517Z,79.08
2023-01-11T17:46:57.454Z,79.46
2023-01-11T17:49:30.586Z,79.79
2023-01-11T17:52:21.171Z,79.71
2023-01-11T17:55:14.272Z,79.69
2023-01-11T17:58:12.500Z,79.28
2023-01-11T18:01:21.514Z,79.44
2023-01-11T18:03:57.759Z,79.57
2023-01-11T18:06:36.157Z,79.33
2023-01-11T18:09:20.440Z,79.94
2023-01-11T18:11:56.672Z,79.76
2023-01-11T18:14:34.445Z,79.34
2023-01-11T18:17:30.613Z,79.07
2023-01-11T18:20:24.836Z,78.97
2023-01-11T18:23:04.608Z,79.12
2023-01-11T18:25:38.649Z,78.61
2023-01-11T18:28:31.763Z,78.63
2023-01-11T18:31:05.311Z,78.35
2023-01-11T18:33:41.810Z,78.76
2023-01-11T18:36:21.181Z,78.13
2023-01-11T18:38:55.455Z,78.45
2023-01-11T18:41:46.342Z,78.75
2023-01-11T18:44:19.621Z,78.95
2023-01-11T18:46:52.956Z,78.87
2023-01-11T18:49:26.198Z,78.92
2023-01-11T18:51:59.124Z,78.74
2023-01-11T18:54:33.691Z,78.76
2023-01-11T18:57:06.678Z,78.62
2023-01-11T18:59:40.111Z,79.16
2023-01-11T19:04:56.137Z,78.81
2023-01-11T19:07:29.271Z,78.99
2023-01-11T19:10:03.640Z,78.86
2023-01-11T19:12:36.841Z,79.47
2023-01-11T19:15:10.819Z,79.34
2023-01-11T19:17:44.464Z,79.34
2023-01-11T19:20:17.738Z,79.20
2023-01-11T19:22:50.628Z,79.35
2023-01-11T19:25:24.989Z,79.14
2023-01-11T19:27:58.134Z,78.22
2023-01-11T19:30:31.080Z,77.85
2023-01-11T19:33:04.041Z,76.75
2023-01-11T19:35:41.003Z,76.75
2023-01-11T19:38:15.982Z,76.54
2023-01-11T19:40:50.720Z,75.88
2023-01-11T19:43:23.835Z,76.09
2023-01-11T19:45:57.209Z,76.29
2023-01-11T19:48:32.389Z,76.55
2023-01-11T19:51:08.433Z,76.70
2023-01-11T19:53:41.323Z,76.89
2023-01-11T19:56:15.614Z,77.11
2023-01-11T19:58:48.826Z,77.44
2023-01-11T20:01:21.745Z,78.01
2023-01-11T20:03:55.133Z,78.32
2023-01-11T20:06:28.126Z,78.03
2023-01-11T20:09:01.261Z,78.57
2023-01-11T20:11:35.621Z,78.93
2023-01-11T20:14:08.545Z,79.00
2023-01-11T20:16:41.589Z,78.82
2023-01-11T20:19:14.583Z,79.04
2023-01-11T20:21:47.539Z,78.71
2023-01-11T20:24:20.490Z,78.60
2023-01-11T20:26:55.220Z,77.68
2023-01-11T20:29:28.540Z,77.49
2023-01-11T20:32:24.638Z,77.20
2023-01-11T20:34:54.459Z,76.82
2023-01-11T20:37:27.391Z,75.85
2023-01-11T20:40:00.391Z,75.08
2023-01-11T20:42:35.020Z,74.79
2023-01-11T20:45:09.178Z,75.20
2023-01-11T20:47:42.185Z,74.84
2023-01-11T20:50:15.224Z,74.95
2023-01-11T20:52:49.569Z,74.97
2023-01-11T20:55:22.499Z,75.03
2023-01-11T20:57:58.478Z,75.98
2023-01-11T21:00:33.750Z,76.29
2023-01-11T21:03:06.784Z,77.00
2023-01-11T21:05:40.024Z,77.43
2023-01-11T21:08:13.039Z,77.63
2023-01-11T21:10:46.022Z,78.11
2023-01-11T21:13:20.364Z,77.81
2023-01-11T21:15:53.320Z,77.81
2023-01-11T21:18:26.261Z,78.57
2023-01-11T21:20:59.184Z,78.27
2023-01-11T21:23:32.145Z,78.39
2023-01-11T21:26:07.563Z,78.49
2023-01-11T21:28:42.963Z,78.73
2023-01-11T21:31:18.022Z,79.05
2023-01-11T21:33:51.444Z,78.90
2023-01-11T21:36:26.083Z,78.93
2023-01-11T21:39:00.768Z,78.10
2023-01-11T21:41:52.358Z,77.71
2023-01-11T21:44:30.002Z,77.69
2023-01-11T21:47:04.221Z,77.58
2023-01-11T21:49:37.154Z,77.86
2023-01-11T21:52:10.585Z,77.88
2023-01-11T21:54:43.809Z,77.82
2023-01-11T21:57:16.725Z,77.75
2023-01-11T21:59:51.079Z,77.45
2023-01-11T22:02:24.541Z,76.97
2023-01-11T22:04:58.544Z,76.16
2023-01-11T22:07:31.694Z,76.14
2023-01-11T22:10:05.711Z,75.53
2023-01-11T22:12:38.753Z,75.46
2023-01-11T22:15:13.368Z,75.38
2023-01-11T22:17:46.523Z,75.90
2023-01-11T22:20:19.491Z,76.77
2023-01-11T22:22:52.375Z,77.19
2023-01-11T22:25:25.296Z,77.66
2023-01-11T22:27:58.514Z,77.56
2023-01-11T22:30:32.935Z,77.13
2023-01-11T22:33:07.458Z,76.32
2023-01-11T22:35:40.364Z,75.63
2023-01-11T22:38:13.394Z,75.07
2023-01-11T22:40:46.347Z,74.75
2023-01-11T22:43:19.236Z,74.37
2023-01-11T22:46:01.097Z,74.38
2023-01-11T22:48:34.054Z,74.69
2023-01-11T22:51:07.572Z,74.00
2023-01-11T22:53:42.032Z,74.28
2023-01-11T22:56:18.752Z,74.52
2023-01-11T22:58:52.989Z,75.04
2023-01-11T23:01:28.682Z,76.34
2023-01-11T23:04:02.547Z,77.00
2023-01-11T23:06:37.710Z,78.01
2023-01-11T23:09:16.035Z,78.65
2023-01-11T23:12:08.119Z,78.41
2023-01-11T23:14:40.985Z,77.67
2023-01-11T23:17:15.636Z,78.09
2023-01-11T23:19:48.596Z,78.35
2023-01-11T23:22:21.511Z,78.45
2023-01-11T23:24:54.483Z,78.65
2023-01-11T23:27:27.757Z,78.35
2023-01-11T23:30:01.106Z,78.06
2023-01-11T23:32:36.165Z,77.58
2023-01-11T23:35:10.068Z,77.54
2023-01-11T23:37:43.008Z,77.05
2023-01-11T23:40:16.087Z,76.64
2023-01-11T23:42:48.115Z,76.05
2023-01-11T23:45:21.111Z,75.92
2023-01-11T23:47:54.536Z,75.82
2023-01-11T23:50:27.488Z,75.27
2023-01-11T23:53:00.365Z,75.32
2023-01-11T23:55:33.993Z,75.06
2023-01-11T23:58:12.677Z,75.48
